Time;durP1;ratioP1;P1;durP2;ratioP2;P2;SDS_P1;SDS_P2;PMS_P1;PMS_P2;Temp;Humidity;BMP_temperature;BMP_pressure;BME280_temperature;BME280_humidity;BME280_pressure;Samples;Min_cycle;Max_cycle;Signal;HPM_P1;HPM_P2
2022/09/18 00:01:26;;;;;;;8.40;3.45;;;;;;;4.97;100.00;101476.06;5031967;28;20033;-50
2022/09/18 00:03:57;;;;;;;6.95;3.10;;;;;;;4.97;100.00;101479.53;5041934;28;20033;-52
2022/09/18 00:06:25;;;;;;;6.60;3.63;;;;;;;4.99;100.00;101469.72;5040451;28;20025;-53
2022/09/18 00:08:53;;;;;;;9.48;3.92;;;;;;;4.94;100.00;101473.69;5038242;28;20036;-52
2022/09/18 00:11:21;;;;;;;9.77;3.72;;;;;;;4.89;100.00;101474.09;5042415;28;20156;-51
2022/09/18 00:13:46;;;;;;;11.57;3.95;;;;;;;4.85;100.00;101466.59;5046148;28;20052;-53
2022/09/18 00:16:14;;;;;;;12.70;6.68;;;;;;;4.83;100.00;101474.63;5030281;28;20021;-49
2022/09/18 00:18:40;;;;;;;9.43;4.30;;;;;;;4.80;100.00;101469.59;5044986;28;20048;-50
2022/09/18 00:21:08;;;;;;;6.75;4.10;;;;;;;4.79;100.00;101467.94;5033942;28;20447;-49
2022/09/18 00:23:34;;;;;;;18.60;4.03;;;;;;;4.72;100.00;101462.34;5032991;28;20048;-50
2022/09/18 00:26:00;;;;;;;7.38;5.20;;;;;;;4.70;100.00;101469.56;5047668;28;20033;-51
2022/09/18 00:28:26;;;;;;;12.20;4.13;;;;;;;4.72;100.00;101469.41;5035495;28;20024;-50
2022/09/18 00:30:52;;;;;;;9.23;2.80;;;;;;;4.72;100.00;101461.53;5039518;28;20078;-51
2022/09/18 00:33:18;;;;;;;7.10;3.90;;;;;;;4.70;100.00;101463.44;5028485;28;20486;-49
2022/09/18 00:35:44;;;;;;;10.73;5.85;;;;;;;4.71;100.00;101459.88;5035493;28;20041;-51
2022/09/18 00:38:10;;;;;;;6.78;3.40;;;;;;;4.73;100.00;101464.03;5039630;28;20021;-50
2022/09/18 00:40:36;;;;;;;10.25;3.75;;;;;;;4.72;100.00;101457.09;5039665;28;20390;-49
2022/09/18 00:43:24;;;;;;;13.18;4.55;;;;;;;4.75;100.00;101471.78;5041784;28;20108;-48
2022/09/18 00:46:04;;;;;;;15.75;4.05;;;;;;;4.75;100.00;101471.78;5043052;28;20051;-49
2022/09/18 00:48:53;;;;;;;7.40;4.38;;;;;;;4.78;100.00;101461.03;5026869;28;20074;-47
2022/09/18 00:51:19;;;;;;;10.25;3.92;;;;;;;4.78;100.00;101459.22;5042201;28;20437;-51
2022/09/18 00:53:54;;;;;;;9.25;3.55;;;;;;;4.81;100.00;101460.75;5037051;28;20029;-53
2022/09/18 00:56:19;;;;;;;17.13;5.72;;;;;;;4.83;100.00;101464.09;5035046;28;20402;-51
2022/09/18 00:58:45;;;;;;;9.48;4.03;;;;;;;4.84;100.00;101465.75;5035005;28;20017;-48
2022/09/18 01:01:11;;;;;;;10.02;4.00;;;;;;;4.84;100.00;101465.75;5041342;28;20537;-52
2022/09/18 01:03:36;;;;;;;15.27;4.63;;;;;;;4.82;100.00;101467.66;5045453;28;20101;-51
2022/09/18 01:06:12;;;;;;;11.93;4.38;;;;;;;4.85;100.00;101464.78;5038213;28;20024;-53
2022/09/18 01:08:44;;;;;;;9.43;4.13;;;;;;;4.82;100.00;101465.03;5043529;28;20093;-56
2022/09/18 01:11:09;;;;;;;;;;;;;;;4.85;100.00;101451.63;5028744;28;20091;-53
2022/09/18 01:14:17;;;;;;;10.40;3.92;;;;;;;4.85;100.00;101466.59;5037124;28;19917;-53
2022/09/18 01:16:48;;;;;;;12.63;5.50;;;;;;;4.91;100.00;101460.81;5040281;28;20079;-54
2022/09/18 01:19:51;;;;;;;10.45;4.10;;;;;;;4.98;100.00;101464.56;5040073;28;20041;-50
2022/09/18 01:22:40;;;;;;;9.43;4.13;;;;;;;5.03;100.00;101454.50;5041179;28;20130;-49
2022/09/18 01:25:17;;;;;;;7.80;3.45;;;;;;;5.08;100.00;101454.13;5043221;28;20112;-50
2022/09/18 01:28:15;;;;;;;5.50;2.72;;;;;;;5.23;100.00;101456.25;5046102;28;20047;-49
2022/09/18 01:30:44;;;;;;;7.38;2.38;;;;;;;5.35;100.00;101457.00;5041301;28;20445;-50
2022/09/18 01:33:18;;;;;;;2.33;1.40;;;;;;;5.55;100.00;101451.78;5028806;28;20034;-48
2022/09/18 01:35:51;;;;;;;2.25;1.00;;;;;;;5.64;100.00;101443.94;5034929;28;20025;-49
2022/09/18 01:38:27;;;;;;;4.93;1.80;;;;;;;6.07;100.00;101445.41;5034932;28;20021;-47
2022/09/18 01:41:02;;;;;;;4.68;0.50;;;;;;;6.24;100.00;101440.41;5034791;28;20087;-49
2022/09/18 01:43:30;;;;;;;1.63;1.02;;;;;;;6.41;100.00;101431.81;5034702;28;20374;-47
2022/09/18 01:46:00;;;;;;;1.25;0.38;;;;;;;6.73;100.00;101436.72;5036157;28;20041;-50
2022/09/18 01:48:51;;;;;;;0.52;0.15;;;;;;;6.93;100.00;101439.34;5042615;28;20082;-49
2022/09/18 01:51:21;;;;;;;3.75;0.85;;;;;;;6.92;100.00;101432.41;5037810;28;20087;-47
2022/09/18 01:54:02;;;;;;;0.52;0.10;;;;;;;6.86;100.00;101428.50;5043589;28;20036;-53
2022/09/18 01:56:34;;;;;;;0.55;0.35;;;;;;;7.05;100.00;101419.72;5040512;28;20100;-49
2022/09/18 01:59:07;;;;;;;0.00;0.00;;;;;;;6.98;100.00;101423.91;5037690;28;20051;-51
2022/09/18 02:01:36;;;;;;;0.17;0.10;;;;;;;6.98;100.00;101418.63;5039955;28;20028;-47
2022/09/18 02:04:09;;;;;;;1.08;0.52;;;;;;;6.88;100.00;101420.47;5025985;28;20033;-51
2022/09/18 02:07:18;;;;;;;0.75;0.68;;;;;;;6.91;100.00;101417.53;5037899;28;20598;-51
2022/09/18 02:09:43;;;;;;;0.63;0.15;;;;;;;6.83;100.00;101413.00;5040355;28;20036;-52
2022/09/18 02:12:11;;;;;;;1.10;0.30;;;;;;;6.66;100.00;101411.94;5031355;28;20434;-51
2022/09/18 02:14:41;;;;;;;2.83;0.85;;;;;;;6.53;100.00;101414.03;5042936;28;20357;-49
2022/09/18 02:17:36;;;;;;;0.20;0.15;;;;;;;6.40;100.00;101413.50;5037322;28;20026;-50
2022/09/18 02:20:09;;;;;;;3.25;0.70;;;;;;;6.32;100.00;101415.06;5029256;28;20052;-53
2022/09/18 02:22:37;;;;;;;0.17;0.10;;;;;;;6.20;100.00;101407.44;5035348;28;20083;-53
2022/09/18 02:25:05;;;;;;;1.75;0.52;;;;;;;6.09;100.00;101417.16;5035483;28;20048;-53
2022/09/18 02:27:33;;;;;;;0.40;0.10;;;;;;;6.03;100.00;101422.94;5041027;28;20052;-51
2022/09/18 02:30:01;;;;;;;0.32;0.17;;;;;;;6.05;100.00;101428.91;5049619;28;20029;-48
2022/09/18 02:32:27;;;;;;;1.00;0.10;;;;;;;6.13;100.00;101422.97;5054211;28;20032;-51
2022/09/18 02:34:52;;;;;;;0.00;0.00;;;;;;;6.11;100.00;101424.88;5040730;28;20029;-50
2022/09/18 02:37:47;;;;;;;1.33;0.57;;;;;;;6.39;100.00;101415.31;5039660;28;20033;-48
2022/09/18 02:40:24;;;;;;;0.63;0.00;;;;;;;6.42;100.00;101422.09;5036643;28;20394;-51
2022/09/18 02:43:08;;;;;;;3.67;0.15;;;;;;;6.30;100.00;101414.34;5037145;28;20055;-50
2022/09/18 02:46:02;;;;;;;0.75;0.28;;;;;;;6.22;100.00;101422.13;5044865;28;20120;-48
2022/09/18 02:48:50;;;;;;;0.65;0.10;;;;;;;6.18;100.00;101420.75;5039411;28;20106;-48
2022/09/18 02:51:35;;;;;;;1.55;0.10;;;;;;;6.08;100.00;101426.00;5045579;28;20044;-50
2022/09/18 02:54:10;;;;;;;2.03;0.20;;;;;;;6.02;100.00;101415.22;5040361;28;20036;-48
2022/09/18 02:56:41;;;;;;;0.30;0.22;;;;;;;5.99;100.00;101411.06;5037437;28;20386;-54
2022/09/18 02:59:17;;;;;;;0.08;0.00;;;;;;;5.95;100.00;101408.81;5039491;28;20040;-52
2022/09/18 03:01:44;;;;;;;0.47;0.47;;;;;;;5.96;100.00;101406.03;5048835;28;20123;-54
2022/09/18 03:04:12;;;;;;;0.40;0.40;;;;;;;5.92;100.00;101414.34;5042498;28;20028;-48
2022/09/18 03:06:37;;;;;;;1.30;0.20;;;;;;;5.88;100.00;101406.69;5046984;28;20029;-53
2022/09/18 03:09:03;;;;;;;0.30;0.10;;;;;;;5.87;100.00;101407.66;5038377;28;20031;-53
2022/09/18 03:11:28;;;;;;;1.15;0.40;;;;;;;5.82;100.00;101402.00;5044257;28;20017;-52
2022/09/18 03:13:53;;;;;;;0.65;0.30;;;;;;;5.85;100.00;101406.16;5041364;28;20049;-49
2022/09/18 03:16:19;;;;;;;0.35;0.03;;;;;;;5.79;100.00;101397.00;5039573;28;20032;-51
2022/09/18 03:18:44;;;;;;;0.50;0.10;;;;;;;5.77;100.00;101400.75;5037380;28;20043;-52
2022/09/18 03:21:10;;;;;;;1.85;0.10;;;;;;;5.74;100.00;101393.94;5049366;28;20047;-48
2022/09/18 03:23:35;;;;;;;0.38;0.30;;;;;;;5.69;100.00;101390.91;5039944;28;20112;-53
2022/09/18 03:26:00;;;;;;;0.30;0.28;;;;;;;5.75;100.00;101397.41;5028790;28;20072;-51
2022/09/18 03:28:26;;;;;;;4.15;0.65;;;;;;;5.78;100.00;101394.50;5046677;28;20041;-48
2022/09/18 03:30:51;;;;;;;0.10;0.10;;;;;;;5.77;100.00;101393.69;5042111;28;20033;-49
2022/09/18 03:33:16;;;;;;;0.35;0.10;;;;;;;5.79;100.00;101396.19;5039983;28;20032;-50
2022/09/18 03:35:42;;;;;;;3.45;0.00;;;;;;;5.78;100.00;101392.72;5034903;28;20017;-50
2022/09/18 03:38:08;;;;;;;0.10;0.10;;;;;;;5.79;100.00;101388.28;5037235;28;20087;-50
2022/09/18 03:40:34;;;;;;;2.10;0.20;;;;;;;5.77;100.00;101382.31;5047379;28;20056;-51
2022/09/18 03:42:59;;;;;;;0.50;0.00;;;;;;;5.77;100.00;101380.50;5043480;28;20030;-49
2022/09/18 03:45:25;;;;;;;2.03;0.15;;;;;;;5.85;100.00;101388.53;5037846;28;20033;-48
2022/09/18 03:47:50;;;;;;;0.35;0.03;;;;;;;5.85;100.00;101388.53;5044991;28;20521;-50
2022/09/18 03:50:15;;;;;;;0.28;0.00;;;;;;;5.88;100.00;101385.63;5046300;28;20028;-51
2022/09/18 03:52:41;;;;;;;0.20;0.10;;;;;;;5.93;100.00;101379.13;5040489;28;20039;-49
2022/09/18 03:55:07;;;;;;;1.55;0.10;;;;;;;5.95;100.00;101391.22;5032826;28;20033;-48
2022/09/18 03:57:32;;;;;;;3.17;0.20;;;;;;;6.10;100.00;101386.38;5040014;28;20025;-53
2022/09/18 03:59:57;;;;;;;0.98;0.30;;;;;;;6.18;100.00;101386.50;5041032;28;20021;-48
2022/09/18 04:02:23;;;;;;;0.15;0.10;;;;;;;6.30;100.00;101392.47;5045350;28;20067;-54
2022/09/18 04:04:48;;;;;;;2.40;1.08;;;;;;;6.30;100.00;101388.03;5031766;28;20806;-53
2022/09/18 04:07:14;;;;;;;0.50;0.20;;;;;;;6.34;100.00;101392.03;5040765;28;20120;-53
2022/09/18 04:09:39;;;;;;;3.97;0.32;;;;;;;6.44;100.00;101388.56;5038247;28;20440;-49
2022/09/18 04:12:05;;;;;;;0.38;0.10;;;;;;;6.61;100.00;101392.25;5038856;28;20064;-52
2022/09/18 04:14:30;;;;;;;0.75;0.00;;;;;;;6.65;100.00;101393.63;5038736;28;20166;-50
2022/09/18 04:16:56;;;;;;;0.65;0.15;;;;;;;6.63;100.00;101395.56;5040296;28;20032;-49
2022/09/18 04:19:21;;;;;;;0.57;0.10;;;;;;;6.72;100.00;101390.28;5043050;28;20029;-52
2022/09/18 04:21:46;;;;;;;0.98;0.20;;;;;;;6.94;100.00;101380.34;5040212;28;20087;-51
2022/09/18 04:24:12;;;;;;;0.10;0.00;;;;;;;7.07;100.00;101383.47;5032677;28;20554;-50
2022/09/18 04:26:37;;;;;;;1.20;0.10;;;;;;;7.05;100.00;101384.59;5038793;28;20378;-50
2022/09/18 04:29:03;;;;;;;1.75;0.10;;;;;;;7.04;100.00;101378.50;5039068;28;20044;-48
2022/09/18 04:31:28;;;;;;;1.63;0.10;;;;;;;7.03;100.00;101378.66;5049078;28;20051;-49
2022/09/18 04:33:54;;;;;;;1.25;1.15;;;;;;;7.03;100.00;101381.28;5041073;28;20057;-49
2022/09/18 04:36:19;;;;;;;1.58;0.45;;;;;;;7.05;100.00;101388.09;5049983;28;20012;-50
2022/09/18 04:38:45;;;;;;;1.42;0.30;;;;;;;7.08;100.00;101384.31;5038806;28;20025;-54
2022/09/18 04:41:10;;;;;;;0.63;0.10;;;;;;;7.07;100.00;101380.00;5044150;28;20043;-53
2022/09/18 04:43:36;;;;;;;0.55;0.00;;;;;;;7.13;100.00;101382.91;5044716;28;20025;-48
2022/09/18 04:46:01;;;;;;;0.47;0.25;;;;;;;7.47;100.00;101387.56;5043360;28;20804;-50
2022/09/18 04:48:26;;;;;;;0.55;0.00;;;;;;;7.82;100.00;101383.28;5034631;28;20072;-50
2022/09/18 04:50:52;;;;;;;0.05;0.05;;;;;;;7.96;100.00;101380.13;5036162;28;20037;-53
2022/09/18 04:53:18;;;;;;;1.55;0.43;;;;;;;7.85;100.00;101373.28;5043326;28;20033;-50
2022/09/18 04:55:44;;;;;;;3.45;0.08;;;;;;;7.65;100.00;101371.75;5032266;28;20346;-49
2022/09/18 04:58:10;;;;;;;2.35;0.00;;;;;;;7.52;100.00;101373.94;5054012;28;20378;-51
2022/09/18 05:00:37;;;;;;;1.17;0.82;;;;;;;7.42;100.00;101380.09;5029344;28;20560;-52
2022/09/18 05:03:06;;;;;;;0.10;0.00;;;;;;;7.38;100.00;101388.44;5040263;28;20037;-49
2022/09/18 05:05:31;;;;;;;1.05;0.05;;;;;;;7.29;100.00;101386.72;5041290;28;20029;-51
2022/09/18 05:08:00;;;;;;;0.52;0.10;;;;;;;7.27;100.00;101384.22;5036174;28;20025;-50
2022/09/18 05:10:26;;;;;;;0.40;0.00;;;;;;;7.28;100.00;101385.03;5042442;28;20446;-52
2022/09/18 05:12:52;;;;;;;2.08;1.25;;;;;;;7.14;100.00;101374.00;5035003;28;20049;-50
2022/09/18 05:15:18;;;;;;;2.65;0.10;;;;;;;7.00;100.00;101377.13;5043551;28;20033;-49
2022/09/18 05:17:43;;;;;;;1.73;0.00;;;;;;;6.93;100.00;101376.06;5038721;28;20025;-52
2022/09/18 05:20:10;;;;;;;0.30;0.08;;;;;;;6.84;100.00;101374.28;5044855;28;20473;-52
2022/09/18 05:22:35;;;;;;;0.47;0.00;;;;;;;6.75;100.00;101365.44;5046077;28;20020;-50
2022/09/18 05:25:02;;;;;;;0.68;0.15;;;;;;;6.93;100.00;101381.31;5035346;28;20044;-55
2022/09/18 05:27:27;;;;;;;0.63;0.63;;;;;;;6.96;100.00;101378.41;5042189;28;20079;-55
2022/09/18 05:29:53;;;;;;;0.15;0.00;;;;;;;6.96;100.00;101368.66;5047782;28;20036;-52
2022/09/18 05:32:19;;;;;;;0.40;0.00;;;;;;;7.12;100.00;101372.47;5033264;28;20223;-52
2022/09/18 05:34:48;;;;;;;2.53;1.40;;;;;;;7.14;100.00;101381.09;5037728;28;20498;-53
2022/09/18 05:37:14;;;;;;;1.77;0.10;;;;;;;7.29;100.00;101376.16;5047409;28;20021;-51
2022/09/18 05:39:41;;;;;;;0.20;0.00;;;;;;;7.30;100.00;101385.72;5042510;28;20032;-51
2022/09/18 05:42:06;;;;;;;0.40;0.10;;;;;;;7.31;100.00;101374.22;5035483;28;20509;-49
2022/09/18 05:44:31;;;;;;;3.00;0.20;;;;;;;7.32;100.00;101378.50;5035457;28;20025;-55
2022/09/18 05:46:57;;;;;;;1.65;0.20;;;;;;;7.38;100.00;101376.09;5039665;28;20039;-49
2022/09/18 05:49:22;;;;;;;1.15;1.05;;;;;;;7.35;100.00;101376.38;5043688;28;20398;-49
2022/09/18 05:51:47;;;;;;;2.33;0.25;;;;;;;7.40;100.00;101375.94;5043177;28;20116;-55
2022/09/18 05:54:14;;;;;;;0.85;0.00;;;;;;;7.47;100.00;101379.66;5039660;28;20789;-52
2022/09/18 05:56:39;;;;;;;0.70;0.25;;;;;;;7.60;100.00;101377.47;5047347;28;20382;-52
2022/09/18 05:59:04;;;;;;;0.68;0.05;;;;;;;7.67;100.00;101379.50;5029296;28;20032;-51
2022/09/18 06:01:30;;;;;;;0.40;0.05;;;;;;;7.69;100.00;101380.19;5040975;28;20357;-54
2022/09/18 06:03:56;;;;;;;6.60;0.10;;;;;;;7.74;100.00;101378.75;5043340;28;20124;-52
2022/09/18 06:06:21;;;;;;;0.68;0.10;;;;;;;7.92;100.00;101375.28;5046787;28;20104;-54
2022/09/18 06:08:46;;;;;;;0.05;0.00;;;;;;;8.11;100.00;101374.31;5043026;28;20151;-51
2022/09/18 06:11:12;;;;;;;5.55;0.17;;;;;;;8.22;100.00;101384.63;5033797;28;20045;-50
2022/09/18 06:13:38;;;;;;;0.73;0.52;;;;;;;8.29;100.00;101368.00;5039748;28;20524;-53
2022/09/18 06:16:03;;;;;;;2.10;0.80;;;;;;;8.41;100.00;101367.78;5044399;28;20431;-54
2022/09/18 06:18:29;;;;;;;1.08;0.03;;;;;;;8.48;100.00;101374.13;5050426;28;20454;-54
2022/09/18 06:20:57;;;;;;;0.30;0.10;;;;;;;8.54;100.00;101377.94;5046468;28;20062;-50
2022/09/18 06:23:24;;;;;;;2.67;0.00;;;;;;;8.62;100.00;101378.00;5037086;28;20033;-52
2022/09/18 06:26:00;;;;;;;0.10;0.10;;;;;;;8.81;100.00;101375.13;5039834;28;20060;-49
2022/09/18 06:28:26;;;;;;;1.83;0.20;;;;;;;8.79;100.00;101374.47;5037309;28;20423;-52
2022/09/18 06:30:51;;;;;;;0.52;0.10;;;;;;;8.87;100.00;101381.59;5032178;28;20105;-49
2022/09/18 06:33:16;;;;;;;5.93;0.43;;;;;;;8.91;100.00;101386.44;5035946;28;20086;-55
2022/09/18 06:35:42;;;;;;;4.10;0.00;;;;;;;9.09;100.00;101381.06;5038102;28;20064;-51
2022/09/18 06:38:08;;;;;;;0.90;0.00;;;;;;;9.17;100.00;101385.53;5037379;28;20064;-52
2022/09/18 06:40:34;;;;;;;0.15;0.00;;;;;;;9.27;100.00;101377.50;5038254;28;20112;-50
2022/09/18 06:43:01;;;;;;;5.95;0.20;;;;;;;9.32;100.00;101383.94;5034161;28;20490;-51
2022/09/18 06:45:28;;;;;;;1.75;0.10;;;;;;;9.33;100.00;101382.13;5025446;28;20432;-49
2022/09/18 06:47:54;;;;;;;2.08;0.03;;;;;;;9.31;100.00;101395.50;5033765;28;20048;-52
2022/09/18 06:50:23;;;;;;;2.05;0.00;;;;;;;9.26;100.00;101389.88;5034698;28;20485;-54
2022/09/18 06:52:49;;;;;;;2.83;0.00;;;;;;;9.26;100.00;101391.69;5029494;28;20518;-49
2022/09/18 06:55:16;;;;;;;0.20;0.10;;;;;;;9.23;100.00;101386.72;5030446;28;20593;-49
2022/09/18 06:57:42;;;;;;;8.88;1.17;;;;;;;9.28;100.00;101395.00;5032466;28;20029;-50
2022/09/18 07:00:08;;;;;;;2.05;0.00;;;;;;;9.27;100.00;101394.19;5029303;28;20032;-53
2022/09/18 07:02:34;;;;;;;0.75;0.20;;;;;;;9.36;100.00;101403.78;5033670;28;20040;-51
2022/09/18 07:04:59;;;;;;;0.10;0.00;;;;;;;9.35;100.00;101399.50;5032198;28;20063;-51
2022/09/18 07:07:25;;;;;;;1.88;0.10;;;;;;;9.42;100.00;101404.16;5034004;28;20406;-51
2022/09/18 07:09:50;;;;;;;1.65;0.00;;;;;;;9.51;100.00;101397.91;5034318;28;20041;-54
2022/09/18 07:12:16;;;;;;;2.22;0.00;;;;;;;9.52;100.00;101403.00;5034759;28;20057;-53
2022/09/18 07:14:41;;;;;;;1.17;0.75;;;;;;;9.58;100.00;101391.78;5025102;28;20046;-56
2022/09/18 07:17:11;;;;;;;0.00;0.00;;;;;;;9.64;100.00;101400.06;5032001;28;20123;-51
2022/09/18 07:19:37;;;;;;;1.58;0.00;;;;;;;9.69;100.00;101388.00;5034139;28;20049;-52
2022/09/18 07:22:02;;;;;;;3.58;0.00;;;;;;;9.73;100.00;101377.91;5035135;28;21037;-53
2022/09/18 07:24:28;;;;;;;0.10;0.00;;;;;;;9.72;100.00;101376.25;5034950;28;20045;-56
2022/09/18 07:26:54;;;;;;;2.67;0.08;;;;;;;9.77;100.00;101380.06;5028945;28;20300;-54
2022/09/18 07:29:20;;;;;;;1.10;0.00;;;;;;;9.79;100.00;101378.09;5033285;28;20548;-50
2022/09/18 07:31:46;;;;;;;1.20;0.10;;;;;;;9.86;100.00;101385.38;5036912;28;20025;-51
2022/09/18 07:34:11;;;;;;;0.00;0.00;;;;;;;9.89;100.00;101379.75;5033666;28;20517;-52
2022/09/18 07:36:36;;;;;;;2.50;0.00;;;;;;;9.94;100.00;101385.38;5037789;28;20040;-51
2022/09/18 07:39:03;;;;;;;0.80;0.05;;;;;;;10.00;100.00;101390.03;5034190;28;20465;-53
2022/09/18 07:41:28;;;;;;;3.83;0.80;;;;;;;10.04;100.00;101392.19;5030030;28;20048;-54
2022/09/18 07:43:53;;;;;;;0.00;0.00;;;;;;;10.12;100.00;101387.84;5035212;28;20033;-52
2022/09/18 07:46:19;;;;;;;0.43;0.00;;;;;;;10.20;100.00;101383.41;5026886;28;20091;-53
2022/09/18 07:48:44;;;;;;;1.45;0.57;;;;;;;10.30;100.00;101382.41;5034648;28;20116;-52
2022/09/18 07:51:10;;;;;;;0.93;0.00;;;;;;;10.40;100.00;101381.28;5029497;28;20033;-53
2022/09/18 07:53:36;;;;;;;0.00;0.00;;;;;;;10.42;100.00;101384.56;5033884;28;20021;-54
2022/09/18 07:56:06;;;;;;;6.00;1.00;;;;;;;10.46;100.00;101377.13;5028901;28;20032;-51
2022/09/18 07:58:31;;;;;;;0.00;0.00;;;;;;;10.50;100.00;101383.72;5034089;28;20022;-48
2022/09/18 08:01:01;;;;;;;0.13;0.10;;;;;;;10.47;100.00;101378.75;5032131;28;20070;-52
2022/09/18 08:03:26;;;;;;;0.10;0.10;;;;;;;10.41;100.00;101374.16;5031045;28;20033;-52
2022/09/18 08:05:52;;;;;;;0.30;0.00;;;;;;;10.43;100.00;101374.81;5027936;28;20044;-55
2022/09/18 08:08:17;;;;;;;1.00;0.10;;;;;;;10.53;100.00;101382.56;5021417;28;20044;-54
2022/09/18 08:10:43;;;;;;;1.98;0.28;;;;;;;10.64;100.00;101377.75;5033038;28;20037;-55
2022/09/18 08:13:09;;;;;;;0.38;0.00;;;;;;;10.75;100.00;101373.06;5029939;28;20049;-52
2022/09/18 08:15:37;;;;;;;1.30;0.00;;;;;;;10.88;100.00;101378.66;5034555;28;20132;-53
2022/09/18 08:18:05;;;;;;;0.00;0.00;;;;;;;10.97;100.00;101375.00;5040418;28;20615;-52
2022/09/18 08:20:30;;;;;;;0.20;0.00;;;;;;;11.09;100.00;101378.91;5033961;28;20067;-49
2022/09/18 08:22:57;;;;;;;0.20;0.20;;;;;;;11.22;100.00;101372.22;5033202;28;20478;-52
2022/09/18 08:25:22;;;;;;;3.13;0.00;;;;;;;11.31;100.00;101381.81;5033530;28;20037;-51
2022/09/18 08:27:47;;;;;;;0.43;0.10;;;;;;;11.41;100.00;101379.78;5023675;28;20033;-50
2022/09/18 08:30:16;;;;;;;1.85;0.10;;;;;;;11.54;100.00;101373.88;5026348;28;20021;-54
2022/09/18 08:32:41;;;;;;;3.92;0.95;;;;;;;11.69;100.00;101373.94;5036700;28;20056;-48
2022/09/18 08:35:07;;;;;;;0.63;0.10;;;;;;;11.79;100.00;101377.19;5042604;28;20454;-47
2022/09/18 08:37:33;;;;;;;1.95;0.35;;;;;;;11.73;100.00;101378.72;5044138;28;20021;-53
2022/09/18 08:39:59;;;;;;;0.15;0.00;;;;;;;11.83;100.00;101375.03;5040716;28;20024;-52
2022/09/18 08:42:55;;;;;;;0.15;0.10;;;;;;;11.97;100.00;101379.56;5044222;28;20040;-51
2022/09/18 08:45:34;;;;;;;1.75;0.10;;;;;;;12.21;100.00;101375.91;5041691;28;20704;-48
2022/09/18 08:48:10;;;;;;;0.73;0.30;;;;;;;12.26;100.00;101375.34;5035725;28;20039;-52
2022/09/18 08:50:39;;;;;;;0.95;0.40;;;;;;;12.31;100.00;101357.84;5045055;28;20037;-50
2022/09/18 08:53:20;;;;;;;0.60;0.50;;;;;;;12.44;100.00;101368.72;5050093;28;20382;-54
2022/09/18 08:55:47;;;;;;;0.75;0.22;;;;;;;12.35;100.00;101371.63;5035569;28;20083;-47
2022/09/18 08:58:18;;;;;;;23.52;1.10;;;;;;;12.39;100.00;101384.38;5033220;28;20490;-48
2022/09/18 09:00:58;;;;;;;1.60;0.10;;;;;;;12.46;100.00;101375.66;5031576;28;20068;-55
2022/09/18 09:03:24;;;;;;;0.70;0.40;;;;;;;12.55;100.00;101379.91;5040221;28;20110;-49
2022/09/18 09:06:01;;;;;;;1.45;0.82;;;;;;;12.76;100.00;101379.19;5037883;28;20149;-50
2022/09/18 09:08:48;;;;;;;2.17;0.08;;;;;;;12.86;100.00;101380.56;5028465;28;20403;-50
2022/09/18 09:11:25;;;;;;;0.68;0.00;;;;;;;12.77;100.00;101378.16;5040586;28;20033;-50
2022/09/18 09:14:31;;;;;;;1.55;0.10;;;;;;;12.75;100.00;101383.69;5043753;28;20139;-51
2022/09/18 09:17:12;;;;;;;0.22;0.00;;;;;;;12.97;100.00;101389.91;5035712;28;20026;-49
2022/09/18 09:19:50;;;;;;;0.77;0.10;;;;;;;13.00;100.00;101384.22;5029986;28;20044;-51
2022/09/18 09:22:18;;;;;;;0.75;0.10;;;;;;;13.00;100.00;101388.72;5032140;28;20041;-51
2022/09/18 09:25:21;;;;;;;1.55;0.52;;;;;;;13.03;100.00;101386.50;5036333;28;20037;-55
2022/09/18 09:27:57;;;;;;;0.55;0.08;;;;;;;13.21;100.00;101375.47;5023698;28;20064;-51
2022/09/18 09:30:23;;;;;;;1.40;0.20;;;;;;;13.34;100.00;101369.50;5034067;28;20079;-51
2022/09/18 09:32:56;;;;;;;1.17;0.38;;;;;;;13.56;100.00;101370.38;5040223;28;20026;-52
2022/09/18 09:35:29;;;;;;;2.30;0.28;;;;;;;13.84;100.00;101372.28;5039524;28;20033;-49
2022/09/18 09:37:58;;;;;;;1.13;0.05;;;;;;;13.92;100.00;101369.50;5040946;28;20025;-50
2022/09/18 09:40:38;;;;;;;0.32;0.00;;;;;;;13.91;100.00;101371.34;5036691;28;20043;-55
2022/09/18 09:43:04;;;;;;;1.27;0.47;;;;;;;14.02;100.00;101361.13;5042947;28;20457;-55
2022/09/18 09:45:41;;;;;;;0.10;0.00;;;;;;;14.00;100.00;101369.34;5047801;28;20260;-52
2022/09/18 09:48:23;;;;;;;0.30;0.10;;;;;;;13.93;100.00;101357.78;5037651;28;20418;-49
2022/09/18 09:51:21;;;;;;;0.20;0.00;;;;;;;13.82;100.00;101351.16;5038336;28;20474;-53
2022/09/18 09:53:46;;;;;;;0.40;0.00;;;;;;;13.63;100.00;101354.44;5044453;28;20087;-46
2022/09/18 09:56:47;;;;;;;3.03;0.00;;;;;;;13.88;100.00;101358.38;5041131;28;20496;-49
2022/09/18 09:59:15;;;;;;;2.67;0.35;;;;;;;14.15;100.00;101351.44;5039338;28;20362;-54
2022/09/18 10:02:21;;;;;;;0.00;0.00;;;;;;;14.21;100.00;101357.00;5047185;28;20025;-51
2022/09/18 10:05:22;;;;;;;2.72;0.00;;;;;;;14.40;100.00;101340.31;5043259;28;20029;-52
2022/09/18 10:08:09;;;;;;;0.05;0.00;;;;;;;14.60;100.00;101346.63;5004075;28;20041;-54
2022/09/18 10:10:44;;;;;;;0.82;0.00;;;;;;;14.89;100.00;101347.38;5041965;28;20080;-54
2022/09/18 10:13:20;;;;;;;0.25;0.00;;;;;;;15.08;100.00;101345.84;5048308;28;20048;-46
2022/09/18 10:15:54;;;;;;;0.70;0.00;;;;;;;14.96;100.00;101345.56;5034053;28;20037;-52
2022/09/18 10:18:28;;;;;;;0.00;0.00;;;;;;;15.00;100.00;101343.34;5040892;28;20036;-47
2022/09/18 10:21:08;;;;;;;0.55;0.08;;;;;;;14.93;100.00;101335.31;5051580;28;20043;-50
2022/09/18 10:23:39;;;;;;;0.85;0.00;;;;;;;15.17;100.00;101346.47;5034919;28;20125;-51
2022/09/18 10:26:05;;;;;;;0.08;0.00;;;;;;;15.19;100.00;101339.09;5044019;28;20028;-48
2022/09/18 10:28:31;;;;;;;0.20;0.20;;;;;;;15.40;100.00;101343.47;5038666;28;20033;-47
2022/09/18 10:31:11;;;;;;;1.65;0.10;;;;;;;15.40;100.00;101330.94;5039277;28;20477;-50
2022/09/18 10:33:41;;;;;;;0.30;0.20;;;;;;;15.48;100.00;101340.59;5044002;28;20028;-51
2022/09/18 10:36:21;;;;;;;4.93;0.00;;;;;;;15.45;100.00;101339.16;5046016;28;20032;-51
2022/09/18 10:38:47;;;;;;;0.22;0.00;;;;;;;15.57;100.00;101346.59;5037721;28;20029;-55
2022/09/18 10:41:18;;;;;;;2.10;0.25;;;;;;;15.81;100.00;101338.00;5037040;28;20032;-46
2022/09/18 10:44:19;;;;;;;0.10;0.00;;;;;;;16.18;100.00;101332.25;5041596;28;20025;-50
2022/09/18 10:47:02;;;;;;;0.30;0.00;;;;;;;16.82;100.00;101338.75;5039458;28;20068;-52
2022/09/18 10:49:29;;;;;;;0.00;0.00;;;;;;;17.18;100.00;101351.56;5036382;28;20104;-47
2022/09/18 10:52:28;;;;;;;0.40;0.00;;;;;;;16.66;100.00;101340.81;5032614;28;20035;-52
2022/09/18 10:55:06;;;;;;;0.63;0.00;;;;;;;15.92;100.00;101340.06;5031526;28;20041;-52
2022/09/18 10:57:34;;;;;;;0.20;0.00;;;;;;;15.33;100.00;101347.97;5029537;28;20197;-50
2022/09/18 11:00:03;;;;;;;1.20;0.00;;;;;;;14.95;100.00;101338.59;5038336;28;20136;-52
2022/09/18 11:02:40;;;;;;;1.65;0.00;;;;;;;15.32;100.00;101333.78;5039492;28;21420;-49
2022/09/18 11:05:22;;;;;;;0.93;0.00;;;;;;;15.90;100.00;101336.81;5035733;28;20121;-53
2022/09/18 11:07:50;;;;;;;17.90;1.25;;;;;;;15.49;100.00;101340.41;5042671;28;20029;-51
2022/09/18 11:10:20;;;;;;;0.20;0.00;;;;;;;15.49;100.00;101335.06;5041920;28;20021;-50
2022/09/18 11:12:50;;;;;;;1.25;0.55;;;;;;;15.66;100.00;101329.31;5041798;28;20467;-49
2022/09/18 11:15:18;;;;;;;0.00;0.00;;;;;;;15.68;100.00;101332.63;5042552;28;20116;-54
2022/09/18 11:17:55;;;;;;;0.45;0.00;;;;;;;15.92;100.00;101329.38;5055268;28;20119;-52
2022/09/18 11:20:28;;;;;;;3.22;0.43;;;;;;;16.43;100.00;101325.22;5044017;28;20308;-55
2022/09/18 11:23:21;;;;;;;1.15;0.00;;;;;;;16.57;100.00;101340.22;5044485;28;20399;-53
2022/09/18 11:25:47;;;;;;;0.50;0.10;;;;;;;16.22;100.00;101339.66;5037015;28;20037;-49
2022/09/18 11:28:30;;;;;;;0.47;0.00;;;;;;;16.04;100.00;101326.91;5046817;28;20052;-46
2022/09/18 11:31:12;;;;;;;0.45;0.00;;;;;;;15.94;100.00;101329.19;5024054;28;20034;-48
2022/09/18 11:33:43;;;;;;;0.00;0.00;;;;;;;16.38;100.00;101327.69;5034355;28;20082;-51
2022/09/18 11:36:11;;;;;;;4.35;0.00;;;;;;;16.76;100.00;101330.47;5034341;28;20067;-49
2022/09/18 11:38:43;;;;;;;0.70;0.00;;;;;;;17.07;100.00;101315.56;5044301;28;20033;-51